sensor_id;sensor_type;location;lat;lon;timestamp;P1;durP1;ratioP1;P2;durP2;ratioP2
6251;SDS011;3159;52.414;9.784;2023-07-22T00:00:36;7.67;;;4.50;;
6251;SDS011;3159;52.414;9.784;2023-07-22T00:03:02;7.43;;;5.10;;
6251;SDS011;3159;52.414;9.784;2023-07-22T00:05:29;6.57;;;4.97;;
6251;SDS011;3159;52.414;9.784;2023-07-22T00:07:56;6.37;;;4.87;;
6251;SDS011;3159;52.414;9.784;2023-07-22T00:10:23;7.10;;;5.13;;
6251;SDS011;3159;52.414;9.784;2023-07-22T00:12:51;7.27;;;5.10;;
6251;SDS011;3159;52.414;9.784;2023-07-22T00:15:18;7.60;;;4.90;;
6251;SDS011;3159;52.414;9.784;2023-07-22T00:17:45;6.90;;;4.73;;
6251;SDS011;3159;52.414;9.784;2023-07-22T00:20:12;7.10;;;5.00;;
6251;SDS011;3159;52.414;9.784;2023-07-22T00:22:40;6.43;;;5.17;;
6251;SDS011;3159;52.414;9.784;2023-07-22T00:25:09;6.67;;;5.20;;
6251;SDS011;3159;52.414;9.784;2023-07-22T00:27:37;8.03;;;5.47;;
6251;SDS011;3159;52.414;9.784;2023-07-22T00:30:06;6.57;;;5.13;;
6251;SDS011;3159;52.414;9.784;2023-07-22T00:32:34;6.53;;;5.40;;
6251;SDS011;3159;52.414;9.784;2023-07-22T00:35:02;6.63;;;5.40;;
6251;SDS011;3159;52.414;9.784;2023-07-22T00:37:29;10.23;;;5.70;;
6251;SDS011;3159;52.414;9.784;2023-07-22T00:39:56;7.30;;;5.80;;
6251;SDS011;3159;52.414;9.784;2023-07-22T00:42:23;6.73;;;5.60;;
6251;SDS011;3159;52.414;9.784;2023-07-22T00:44:50;7.67;;;5.90;;
6251;SDS011;3159;52.414;9.784;2023-07-22T00:47:18;6.80;;;5.20;;
6251;SDS011;3159;52.414;9.784;2023-07-22T00:49:46;10.33;;;5.57;;
6251;SDS011;3159;52.414;9.784;2023-07-22T00:52:15;6.60;;;5.33;;
6251;SDS011;3159;52.414;9.784;2023-07-22T00:54:42;8.60;;;5.53;;
6251;SDS011;3159;52.414;9.784;2023-07-22T00:57:10;8.07;;;5.77;;
6251;SDS011;3159;52.414;9.784;2023-07-22T00:59:38;10.00;;;6.03;;
6251;SDS011;3159;52.414;9.784;2023-07-22T01:02:05;8.40;;;5.47;;
6251;SDS011;3159;52.414;9.784;2023-07-22T01:04:34;7.20;;;5.70;;
6251;SDS011;3159;52.414;9.784;2023-07-22T01:07:01;7.87;;;5.93;;
6251;SDS011;3159;52.414;9.784;2023-07-22T01:09:34;10.60;;;5.87;;
6251;SDS011;3159;52.414;9.784;2023-07-22T01:12:02;7.40;;;5.60;;
6251;SDS011;3159;52.414;9.784;2023-07-22T01:14:30;10.60;;;5.83;;
6251;SDS011;3159;52.414;9.784;2023-07-22T01:16:58;7.17;;;5.33;;
6251;SDS011;3159;52.414;9.784;2023-07-22T01:19:26;6.30;;;4.67;;
6251;SDS011;3159;52.414;9.784;2023-07-22T01:21:54;7.43;;;5.77;;
6251;SDS011;3159;52.414;9.784;2023-07-22T01:24:24;7.17;;;5.77;;
6251;SDS011;3159;52.414;9.784;2023-07-22T01:26:51;6.40;;;5.67;;
6251;SDS011;3159;52.414;9.784;2023-07-22T01:29:18;6.67;;;5.53;;
6251;SDS011;3159;52.414;9.784;2023-07-22T01:31:46;9.00;;;5.30;;
6251;SDS011;3159;52.414;9.784;2023-07-22T01:34:14;9.80;;;6.03;;
6251;SDS011;3159;52.414;9.784;2023-07-22T01:36:42;11.30;;;6.40;;
6251;SDS011;3159;52.414;9.784;2023-07-22T01:39:09;9.27;;;6.53;;
6251;SDS011;3159;52.414;9.784;2023-07-22T01:41:38;8.77;;;5.50;;
6251;SDS011;3159;52.414;9.784;2023-07-22T01:44:05;8.47;;;6.23;;
6251;SDS011;3159;52.414;9.784;2023-07-22T01:46:33;9.27;;;6.37;;
6251;SDS011;3159;52.414;9.784;2023-07-22T01:49:00;8.20;;;5.83;;
6251;SDS011;3159;52.414;9.784;2023-07-22T01:51:28;10.20;;;6.07;;
6251;SDS011;3159;52.414;9.784;2023-07-22T01:53:55;7.93;;;5.87;;
6251;SDS011;3159;52.414;9.784;2023-07-22T01:56:22;7.50;;;5.83;;
6251;SDS011;3159;52.414;9.784;2023-07-22T01:58:50;8.30;;;6.00;;
6251;SDS011;3159;52.414;9.784;2023-07-22T02:01:17;9.27;;;6.17;;
6251;SDS011;3159;52.414;9.784;2023-07-22T02:03:44;7.80;;;5.40;;
6251;SDS011;3159;52.414;9.784;2023-07-22T02:06:11;7.87;;;5.50;;
6251;SDS011;3159;52.414;9.784;2023-07-22T02:08:38;7.80;;;5.60;;
6251;SDS011;3159;52.414;9.784;2023-07-22T02:11:05;9.10;;;5.77;;
6251;SDS011;3159;52.414;9.784;2023-07-22T02:13:34;10.27;;;5.87;;
6251;SDS011;3159;52.414;9.784;2023-07-22T02:16:03;8.83;;;5.57;;
6251;SDS011;3159;52.414;9.784;2023-07-22T02:18:30;6.00;;;4.90;;
6251;SDS011;3159;52.414;9.784;2023-07-22T02:20:57;8.27;;;5.63;;
6251;SDS011;3159;52.414;9.784;2023-07-22T02:23:24;8.47;;;5.23;;
6251;SDS011;3159;52.414;9.784;2023-07-22T02:25:51;6.27;;;5.07;;
6251;SDS011;3159;52.414;9.784;2023-07-22T02:28:18;8.30;;;6.23;;
6251;SDS011;3159;52.414;9.784;2023-07-22T02:30:46;10.17;;;5.40;;
6251;SDS011;3159;52.414;9.784;2023-07-22T02:33:15;7.57;;;5.17;;
6251;SDS011;3159;52.414;9.784;2023-07-22T02:35:42;7.50;;;5.10;;
6251;SDS011;3159;52.414;9.784;2023-07-22T02:38:09;8.60;;;5.73;;
6251;SDS011;3159;52.414;9.784;2023-07-22T02:40:36;9.33;;;4.97;;
6251;SDS011;3159;52.414;9.784;2023-07-22T02:43:03;6.67;;;4.47;;
6251;SDS011;3159;52.414;9.784;2023-07-22T02:45:32;10.93;;;5.90;;
6251;SDS011;3159;52.414;9.784;2023-07-22T02:47:59;7.30;;;4.70;;
6251;SDS011;3159;52.414;9.784;2023-07-22T02:50:27;11.50;;;5.83;;
6251;SDS011;3159;52.414;9.784;2023-07-22T02:52:54;8.60;;;5.27;;
6251;SDS011;3159;52.414;9.784;2023-07-22T02:55:21;8.37;;;5.77;;
6251;SDS011;3159;52.414;9.784;2023-07-22T02:57:48;7.40;;;5.50;;
6251;SDS011;3159;52.414;9.784;2023-07-22T03:00:16;8.77;;;4.93;;
6251;SDS011;3159;52.414;9.784;2023-07-22T03:02:48;7.73;;;4.93;;
6251;SDS011;3159;52.414;9.784;2023-07-22T03:05:15;9.40;;;5.43;;
6251;SDS011;3159;52.414;9.784;2023-07-22T03:07:44;8.33;;;4.83;;
6251;SDS011;3159;52.414;9.784;2023-07-22T03:10:11;8.93;;;5.33;;
6251;SDS011;3159;52.414;9.784;2023-07-22T03:12:38;8.93;;;5.40;;
6251;SDS011;3159;52.414;9.784;2023-07-22T03:15:05;8.00;;;5.50;;
6251;SDS011;3159;52.414;9.784;2023-07-22T03:17:33;10.77;;;5.43;;
6251;SDS011;3159;52.414;9.784;2023-07-22T03:20:01;8.10;;;5.43;;
6251;SDS011;3159;52.414;9.784;2023-07-22T03:22:30;9.97;;;5.00;;
6251;SDS011;3159;52.414;9.784;2023-07-22T03:24:59;7.07;;;5.33;;
6251;SDS011;3159;52.414;9.784;2023-07-22T03:27:25;10.40;;;5.47;;
6251;SDS011;3159;52.414;9.784;2023-07-22T03:29:52;9.03;;;5.70;;
6251;SDS011;3159;52.414;9.784;2023-07-22T03:32:19;9.83;;;5.93;;
6251;SDS011;3159;52.414;9.784;2023-07-22T03:34:46;9.90;;;6.00;;
6251;SDS011;3159;52.414;9.784;2023-07-22T03:37:13;8.37;;;6.03;;
6251;SDS011;3159;52.414;9.784;2023-07-22T03:39:39;9.40;;;5.60;;
6251;SDS011;3159;52.414;9.784;2023-07-22T03:42:08;9.33;;;5.67;;
6251;SDS011;3159;52.414;9.784;2023-07-22T03:44:34;8.70;;;6.03;;
6251;SDS011;3159;52.414;9.784;2023-07-22T03:47:02;8.17;;;5.77;;
6251;SDS011;3159;52.414;9.784;2023-07-22T03:49:29;11.53;;;5.33;;
6251;SDS011;3159;52.414;9.784;2023-07-22T03:51:56;9.87;;;6.13;;
6251;SDS011;3159;52.414;9.784;2023-07-22T03:54:22;8.73;;;6.17;;
6251;SDS011;3159;52.414;9.784;2023-07-22T03:56:49;11.80;;;5.47;;
6251;SDS011;3159;52.414;9.784;2023-07-22T03:59:17;9.87;;;5.83;;
6251;SDS011;3159;52.414;9.784;2023-07-22T04:01:45;10.73;;;5.63;;
6251;SDS011;3159;52.414;9.784;2023-07-22T04:04:12;8.10;;;5.40;;
6251;SDS011;3159;52.414;9.784;2023-07-22T04:06:39;7.93;;;5.57;;
6251;SDS011;3159;52.414;9.784;2023-07-22T04:09:06;10.03;;;5.90;;
6251;SDS011;3159;52.414;9.784;2023-07-22T04:11:33;9.10;;;5.80;;
6251;SDS011;3159;52.414;9.784;2023-07-22T04:14:00;8.53;;;6.13;;
6251;SDS011;3159;52.414;9.784;2023-07-22T04:16:28;9.70;;;5.93;;
6251;SDS011;3159;52.414;9.784;2023-07-22T04:18:56;10.87;;;6.20;;
6251;SDS011;3159;52.414;9.784;2023-07-22T04:21:23;8.97;;;6.00;;
6251;SDS011;3159;52.414;9.784;2023-07-22T04:23:49;11.23;;;6.10;;
6251;SDS011;3159;52.414;9.784;2023-07-22T04:26:16;9.10;;;6.10;;
6251;SDS011;3159;52.414;9.784;2023-07-22T04:28:43;8.90;;;6.00;;
6251;SDS011;3159;52.414;9.784;2023-07-22T04:31:10;9.73;;;5.13;;
6251;SDS011;3159;52.414;9.784;2023-07-22T04:33:38;10.30;;;5.70;;
6251;SDS011;3159;52.414;9.784;2023-07-22T04:36:06;8.60;;;5.97;;
6251;SDS011;3159;52.414;9.784;2023-07-22T04:38:33;7.50;;;5.67;;
6251;SDS011;3159;52.414;9.784;2023-07-22T04:41:02;11.70;;;5.90;;
6251;SDS011;3159;52.414;9.784;2023-07-22T04:43:30;7.73;;;5.57;;
6251;SDS011;3159;52.414;9.784;2023-07-22T04:45:57;9.87;;;5.80;;
6251;SDS011;3159;52.414;9.784;2023-07-22T04:48:24;10.60;;;5.83;;
6251;SDS011;3159;52.414;9.784;2023-07-22T04:50:53;9.13;;;6.50;;
6251;SDS011;3159;52.414;9.784;2023-07-22T04:53:20;9.90;;;6.03;;
6251;SDS011;3159;52.414;9.784;2023-07-22T04:55:47;12.60;;;6.17;;
6251;SDS011;3159;52.414;9.784;2023-07-22T04:58:14;9.77;;;6.40;;
6251;SDS011;3159;52.414;9.784;2023-07-22T05:00:42;8.57;;;6.37;;
6251;SDS011;3159;52.414;9.784;2023-07-22T05:03:08;7.50;;;5.47;;
6251;SDS011;3159;52.414;9.784;2023-07-22T05:05:35;9.70;;;5.80;;
6251;SDS011;3159;52.414;9.784;2023-07-22T05:08:04;12.27;;;6.20;;
6251;SDS011;3159;52.414;9.784;2023-07-22T05:10:32;9.57;;;6.60;;
6251;SDS011;3159;52.414;9.784;2023-07-22T05:12:59;7.97;;;5.80;;
6251;SDS011;3159;52.414;9.784;2023-07-22T05:15:26;8.30;;;5.73;;
6251;SDS011;3159;52.414;9.784;2023-07-22T05:17:53;10.97;;;5.63;;
6251;SDS011;3159;52.414;9.784;2023-07-22T05:20:19;10.53;;;6.13;;
6251;SDS011;3159;52.414;9.784;2023-07-22T05:22:47;10.93;;;6.93;;
6251;SDS011;3159;52.414;9.784;2023-07-22T05:25:16;9.70;;;6.17;;
6251;SDS011;3159;52.414;9.784;2023-07-22T05:27:42;9.57;;;6.03;;
6251;SDS011;3159;52.414;9.784;2023-07-22T05:30:09;9.60;;;6.47;;
6251;SDS011;3159;52.414;9.784;2023-07-22T05:32:36;11.77;;;6.00;;
6251;SDS011;3159;52.414;9.784;2023-07-22T05:35:03;13.43;;;6.77;;
6251;SDS011;3159;52.414;9.784;2023-07-22T05:37:31;8.87;;;5.67;;
6251;SDS011;3159;52.414;9.784;2023-07-22T05:39:58;9.77;;;5.87;;
6251;SDS011;3159;52.414;9.784;2023-07-22T05:42:27;7.30;;;5.87;;
6251;SDS011;3159;52.414;9.784;2023-07-22T05:44:54;9.70;;;5.77;;
6251;SDS011;3159;52.414;9.784;2023-07-22T05:47:21;11.97;;;6.07;;
6251;SDS011;3159;52.414;9.784;2023-07-22T05:49:48;12.90;;;6.37;;
6251;SDS011;3159;52.414;9.784;2023-07-22T05:52:15;11.77;;;5.97;;
6251;SDS011;3159;52.414;9.784;2023-07-22T05:54:43;9.03;;;6.30;;
6251;SDS011;3159;52.414;9.784;2023-07-22T05:57:09;11.07;;;6.57;;
6251;SDS011;3159;52.414;9.784;2023-07-22T05:59:38;10.57;;;6.03;;
6251;SDS011;3159;52.414;9.784;2023-07-22T06:02:05;9.13;;;6.60;;
6251;SDS011;3159;52.414;9.784;2023-07-22T06:04:34;14.87;;;6.97;;
6251;SDS011;3159;52.414;9.784;2023-07-22T06:07:01;10.20;;;6.30;;
6251;SDS011;3159;52.414;9.784;2023-07-22T06:09:28;10.20;;;6.90;;
6251;SDS011;3159;52.414;9.784;2023-07-22T06:11:55;10.53;;;6.43;;
6251;SDS011;3159;52.414;9.784;2023-07-22T06:14:21;11.23;;;6.33;;
6251;SDS011;3159;52.414;9.784;2023-07-22T06:16:49;10.47;;;6.43;;
6251;SDS011;3159;52.414;9.784;2023-07-22T06:19:16;12.43;;;6.60;;
6251;SDS011;3159;52.414;9.784;2023-07-22T06:21:43;8.80;;;6.43;;
6251;SDS011;3159;52.414;9.784;2023-07-22T06:24:10;9.40;;;6.63;;
6251;SDS011;3159;52.414;9.784;2023-07-22T06:26:37;10.43;;;6.90;;
6251;SDS011;3159;52.414;9.784;2023-07-22T06:29:04;8.37;;;6.47;;
6251;SDS011;3159;52.414;9.784;2023-07-22T06:31:30;9.63;;;6.57;;
6251;SDS011;3159;52.414;9.784;2023-07-22T06:33:59;10.57;;;6.30;;
6251;SDS011;3159;52.414;9.784;2023-07-22T06:36:25;10.93;;;6.37;;
6251;SDS011;3159;52.414;9.784;2023-07-22T06:38:53;8.30;;;5.57;;
6251;SDS011;3159;52.414;9.784;2023-07-22T06:41:21;9.07;;;6.20;;
6251;SDS011;3159;52.414;9.784;2023-07-22T06:43:49;8.30;;;5.77;;
6251;SDS011;3159;52.414;9.784;2023-07-22T06:46:16;10.33;;;6.30;;
6251;SDS011;3159;52.414;9.784;2023-07-22T06:48:43;9.50;;;5.87;;
6251;SDS011;3159;52.414;9.784;2023-07-22T06:51:12;7.70;;;5.80;;
6251;SDS011;3159;52.414;9.784;2023-07-22T06:53:38;8.90;;;6.33;;
6251;SDS011;3159;52.414;9.784;2023-07-22T06:56:05;12.20;;;6.33;;
6251;SDS011;3159;52.414;9.784;2023-07-22T06:58:32;11.50;;;6.47;;
6251;SDS011;3159;52.414;9.784;2023-07-22T07:00:59;8.77;;;5.70;;
6251;SDS011;3159;52.414;9.784;2023-07-22T07:03:26;9.07;;;5.87;;
6251;SDS011;3159;52.414;9.784;2023-07-22T07:05:53;10.00;;;6.37;;
6251;SDS011;3159;52.414;9.784;2023-07-22T07:08:22;9.70;;;6.23;;
6251;SDS011;3159;52.414;9.784;2023-07-22T07:10:49;8.10;;;6.33;;
6251;SDS011;3159;52.414;9.784;2023-07-22T07:13:16;9.90;;;6.30;;
6251;SDS011;3159;52.414;9.784;2023-07-22T07:15:45;10.27;;;6.30;;
6251;SDS011;3159;52.414;9.784;2023-07-22T07:18:13;9.60;;;6.77;;
6251;SDS011;3159;52.414;9.784;2023-07-22T07:20:40;9.40;;;6.60;;
6251;SDS011;3159;52.414;9.784;2023-07-22T07:23:07;11.53;;;6.97;;
6251;SDS011;3159;52.414;9.784;2023-07-22T07:25:35;10.30;;;6.87;;
6251;SDS011;3159;52.414;9.784;2023-07-22T07:28:03;8.37;;;5.90;;
6251;SDS011;3159;52.414;9.784;2023-07-22T07:30:30;17.17;;;7.57;;
6251;SDS011;3159;52.414;9.784;2023-07-22T07:32:57;10.97;;;6.10;;
6251;SDS011;3159;52.414;9.784;2023-07-22T07:35:24;11.70;;;6.90;;
6251;SDS011;3159;52.414;9.784;2023-07-22T07:37:51;11.57;;;6.53;;
6251;SDS011;3159;52.414;9.784;2023-07-22T07:40:18;12.53;;;6.87;;
6251;SDS011;3159;52.414;9.784;2023-07-22T07:42:46;10.20;;;6.30;;
6251;SDS011;3159;52.414;9.784;2023-07-22T07:45:13;8.13;;;6.33;;
6251;SDS011;3159;52.414;9.784;2023-07-22T07:47:40;9.13;;;6.47;;
6251;SDS011;3159;52.414;9.784;2023-07-22T07:50:07;9.03;;;6.00;;
6251;SDS011;3159;52.414;9.784;2023-07-22T07:52:34;7.57;;;6.07;;
6251;SDS011;3159;52.414;9.784;2023-07-22T07:55:03;10.47;;;5.90;;
6251;SDS011;3159;52.414;9.784;2023-07-22T07:57:31;7.60;;;5.53;;
6251;SDS011;3159;52.414;9.784;2023-07-22T07:59:59;10.67;;;6.27;;
6251;SDS011;3159;52.414;9.784;2023-07-22T08:02:26;10.77;;;6.67;;
6251;SDS011;3159;52.414;9.784;2023-07-22T08:04:53;10.50;;;6.13;;
6251;SDS011;3159;52.414;9.784;2023-07-22T08:07:20;8.27;;;5.83;;
6251;SDS011;3159;52.414;9.784;2023-07-22T08:09:46;9.47;;;6.20;;
6251;SDS011;3159;52.414;9.784;2023-07-22T08:12:15;8.87;;;5.93;;
6251;SDS011;3159;52.414;9.784;2023-07-22T08:14:41;9.70;;;6.00;;
6251;SDS011;3159;52.414;9.784;2023-07-22T08:17:10;5.93;;;5.30;;
6251;SDS011;3159;52.414;9.784;2023-07-22T08:19:36;7.07;;;5.47;;
6251;SDS011;3159;52.414;9.784;2023-07-22T08:22:03;6.50;;;5.17;;
6251;SDS011;3159;52.414;9.784;2023-07-22T08:24:31;9.73;;;5.83;;
6251;SDS011;3159;52.414;9.784;2023-07-22T08:26:58;8.67;;;5.57;;
6251;SDS011;3159;52.414;9.784;2023-07-22T08:29:25;7.13;;;5.43;;
6251;SDS011;3159;52.414;9.784;2023-07-22T08:31:52;8.17;;;5.47;;
6251;SDS011;3159;52.414;9.784;2023-07-22T08:34:20;7.87;;;5.43;;
6251;SDS011;3159;52.414;9.784;2023-07-22T08:36:47;9.93;;;5.93;;
6251;SDS011;3159;52.414;9.784;2023-07-22T08:39:14;9.60;;;5.90;;
6251;SDS011;3159;52.414;9.784;2023-07-22T08:41:40;10.13;;;6.40;;
6251;SDS011;3159;52.414;9.784;2023-07-22T08:44:14;7.53;;;5.90;;
6251;SDS011;3159;52.414;9.784;2023-07-22T23:57:11;9.67;;;7.57;;
6251;SDS011;3159;52.414;9.784;2023-07-22T23:59:38;8.90;;;7.37;;
